sensor_id;sensor_type;location;lat;lon;timestamp;temperature;humidity
52471;DHT22;38382;53.160;7.026;2022-11-24T00:00:51;7.80;99.90
52471;DHT22;38382;53.160;7.026;2022-11-24T00:03:17;6.90;99.90
52471;DHT22;38382;53.160;7.026;2022-11-24T00:05:43;7.00;99.90
52471;DHT22;38382;53.160;7.026;2022-11-24T00:08:09;7.00;99.90
52471;DHT22;38382;53.160;7.026;2022-11-24T00:10:35;7.20;99.90
52471;DHT22;38382;53.160;7.026;2022-11-24T00:13:01;6.90;99.90
52471;DHT22;38382;53.160;7.026;2022-11-24T00:15:26;6.90;99.90
52471;DHT22;38382;53.160;7.026;2022-11-24T00:17:52;6.90;99.90
52471;DHT22;38382;53.160;7.026;2022-11-24T00:20:18;7.30;99.90
52471;DHT22;38382;53.160;7.026;2022-11-24T00:22:43;7.10;99.90
52471;DHT22;38382;53.160;7.026;2022-11-24T00:25:09;7.20;99.90
52471;DHT22;38382;53.160;7.026;2022-11-24T00:27:35;6.90;99.90
52471;DHT22;38382;53.160;7.026;2022-11-24T00:30:00;6.90;99.90
52471;DHT22;38382;53.160;7.026;2022-11-24T00:32:30;6.90;99.90
52471;DHT22;38382;53.160;7.026;2022-11-24T00:34:55;6.90;99.90
52471;DHT22;38382;53.160;7.026;2022-11-24T00:37:21;8.00;99.90
52471;DHT22;38382;53.160;7.026;2022-11-24T00:39:47;7.00;99.90
52471;DHT22;38382;53.160;7.026;2022-11-24T00:42:12;6.80;99.90
52471;DHT22;38382;53.160;7.026;2022-11-24T00:44:39;7.30;99.90
52471;DHT22;38382;53.160;7.026;2022-11-24T00:47:04;6.70;99.90
52471;DHT22;38382;53.160;7.026;2022-11-24T00:49:30;6.70;99.90
52471;DHT22;38382;53.160;7.026;2022-11-24T00:51:56;6.70;99.90
52471;DHT22;38382;53.160;7.026;2022-11-24T00:54:22;6.60;99.90
52471;DHT22;38382;53.160;7.026;2022-11-24T00:56:48;6.60;99.90
52471;DHT22;38382;53.160;7.026;2022-11-24T00:59:13;7.20;99.90
52471;DHT22;38382;53.160;7.026;2022-11-24T01:01:39;6.70;99.90
52471;DHT22;38382;53.160;7.026;2022-11-24T01:04:06;6.50;99.90
52471;DHT22;38382;53.160;7.026;2022-11-24T01:06:32;6.50;99.90
52471;DHT22;38382;53.160;7.026;2022-11-24T01:08:59;6.50;99.90
52471;DHT22;38382;53.160;7.026;2022-11-24T01:11:28;6.40;99.90
52471;DHT22;38382;53.160;7.026;2022-11-24T01:13:58;6.40;99.90
52471;DHT22;38382;53.160;7.026;2022-11-24T01:16:27;6.40;99.90
52471;DHT22;38382;53.160;7.026;2022-11-24T01:18:53;6.40;99.90
52471;DHT22;38382;53.160;7.026;2022-11-24T01:21:20;7.40;99.90
52471;DHT22;38382;53.160;7.026;2022-11-24T01:23:46;6.40;99.90
52471;DHT22;38382;53.160;7.026;2022-11-24T01:26:14;6.40;99.90
52471;DHT22;38382;53.160;7.026;2022-11-24T01:28:41;7.50;99.90
52471;DHT22;38382;53.160;7.026;2022-11-24T01:31:07;6.60;99.90
52471;DHT22;38382;53.160;7.026;2022-11-24T01:33:34;6.40;99.90
52471;DHT22;38382;53.160;7.026;2022-11-24T01:36:00;6.30;99.90
52471;DHT22;38382;53.160;7.026;2022-11-24T01:38:27;6.60;99.90
52471;DHT22;38382;53.160;7.026;2022-11-24T01:41:06;6.40;99.90
52471;DHT22;38382;53.160;7.026;2022-11-24T01:43:33;6.30;99.90
52471;DHT22;38382;53.160;7.026;2022-11-24T01:48:44;6.30;99.90
52471;DHT22;38382;53.160;7.026;2022-11-24T01:51:32;6.30;99.90
52471;DHT22;38382;53.160;7.026;2022-11-24T01:54:05;6.30;99.90
52471;DHT22;38382;53.160;7.026;2022-11-24T01:56:34;6.30;99.90
52471;DHT22;38382;53.160;7.026;2022-11-24T01:59:04;6.50;99.90
52471;DHT22;38382;53.160;7.026;2022-11-24T02:01:32;6.40;99.90
52471;DHT22;38382;53.160;7.026;2022-11-24T02:03:59;6.30;99.90
52471;DHT22;38382;53.160;7.026;2022-11-24T02:06:28;6.30;99.90
52471;DHT22;38382;53.160;7.026;2022-11-24T02:11:58;6.20;99.90
52471;DHT22;38382;53.160;7.026;2022-11-24T02:14:25;5.50;99.90
52471;DHT22;38382;53.160;7.026;2022-11-24T02:16:51;6.20;99.90
52471;DHT22;38382;53.160;7.026;2022-11-24T02:22:37;6.20;99.90
52471;DHT22;38382;53.160;7.026;2022-11-24T02:27:46;6.20;99.90
52471;DHT22;38382;53.160;7.026;2022-11-24T02:30:12;6.20;99.90
52471;DHT22;38382;53.160;7.026;2022-11-24T02:32:40;6.20;99.90
52471;DHT22;38382;53.160;7.026;2022-11-24T02:35:08;6.20;99.90
52471;DHT22;38382;53.160;7.026;2022-11-24T02:37:33;6.20;99.90
52471;DHT22;38382;53.160;7.026;2022-11-24T02:39:59;6.20;99.90
52471;DHT22;38382;53.160;7.026;2022-11-24T02:42:27;6.40;99.90
52471;DHT22;38382;53.160;7.026;2022-11-24T02:44:57;6.20;99.90
52471;DHT22;38382;53.160;7.026;2022-11-24T02:47:24;6.20;99.90
52471;DHT22;38382;53.160;7.026;2022-11-24T02:49:50;6.20;99.90
52471;DHT22;38382;53.160;7.026;2022-11-24T02:52:16;6.10;99.90
52471;DHT22;38382;53.160;7.026;2022-11-24T02:54:41;7.60;99.90
52471;DHT22;38382;53.160;7.026;2022-11-24T02:57:07;6.50;99.90
52471;DHT22;38382;53.160;7.026;2022-11-24T02:59:33;6.10;99.90
52471;DHT22;38382;53.160;7.026;2022-11-24T03:01:59;6.10;99.90
52471;DHT22;38382;53.160;7.026;2022-11-24T03:04:25;6.60;99.90
52471;DHT22;38382;53.160;7.026;2022-11-24T03:06:50;6.10;99.90
52471;DHT22;38382;53.160;7.026;2022-11-24T03:09:16;6.10;99.90
52471;DHT22;38382;53.160;7.026;2022-11-24T03:11:42;6.10;99.90
52471;DHT22;38382;53.160;7.026;2022-11-24T03:14:08;6.10;99.90
52471;DHT22;38382;53.160;7.026;2022-11-24T03:16:33;6.30;99.90
52471;DHT22;38382;53.160;7.026;2022-11-24T03:19:00;6.30;99.90
52471;DHT22;38382;53.160;7.026;2022-11-24T03:21:26;6.00;99.90
52471;DHT22;38382;53.160;7.026;2022-11-24T03:23:52;6.00;99.90
52471;DHT22;38382;53.160;7.026;2022-11-24T03:26:22;6.90;99.90
52471;DHT22;38382;53.160;7.026;2022-11-24T03:28:48;6.00;99.90
52471;DHT22;38382;53.160;7.026;2022-11-24T03:31:14;6.80;99.90
52471;DHT22;38382;53.160;7.026;2022-11-24T03:33:39;6.10;99.90
52471;DHT22;38382;53.160;7.026;2022-11-24T03:36:06;6.10;99.90
52471;DHT22;38382;53.160;7.026;2022-11-24T03:38:32;6.20;99.90
52471;DHT22;38382;53.160;7.026;2022-11-24T03:40:58;6.40;99.90
52471;DHT22;38382;53.160;7.026;2022-11-24T03:43:24;6.30;99.90
52471;DHT22;38382;53.160;7.026;2022-11-24T03:45:50;6.30;99.90
52471;DHT22;38382;53.160;7.026;2022-11-24T03:48:16;6.40;99.90
52471;DHT22;38382;53.160;7.026;2022-11-24T03:50:43;6.40;99.90
52471;DHT22;38382;53.160;7.026;2022-11-24T03:53:09;6.40;99.90
52471;DHT22;38382;53.160;7.026;2022-11-24T03:55:34;6.40;99.90
52471;DHT22;38382;53.160;7.026;2022-11-24T03:58:01;6.50;99.90
52471;DHT22;38382;53.160;7.026;2022-11-24T04:00:27;6.50;99.90
52471;DHT22;38382;53.160;7.026;2022-11-24T04:02:53;6.70;99.90
52471;DHT22;38382;53.160;7.026;2022-11-24T04:05:19;6.50;99.90
52471;DHT22;38382;53.160;7.026;2022-11-24T04:07:44;6.60;99.90
52471;DHT22;38382;53.160;7.026;2022-11-24T04:10:10;6.60;99.90
52471;DHT22;38382;53.160;7.026;2022-11-24T04:12:36;6.60;99.90
52471;DHT22;38382;53.160;7.026;2022-11-24T04:15:15;6.70;99.90
52471;DHT22;38382;53.160;7.026;2022-11-24T04:17:42;6.70;99.90
52471;DHT22;38382;53.160;7.026;2022-11-24T04:20:09;6.70;99.90
52471;DHT22;38382;53.160;7.026;2022-11-24T04:22:35;6.70;99.90
52471;DHT22;38382;53.160;7.026;2022-11-24T04:25:01;6.70;99.90
52471;DHT22;38382;53.160;7.026;2022-11-24T04:27:27;6.60;99.90
52471;DHT22;38382;53.160;7.026;2022-11-24T04:29:53;6.70;99.90
52471;DHT22;38382;53.160;7.026;2022-11-24T04:32:19;6.60;99.90
52471;DHT22;38382;53.160;7.026;2022-11-24T04:34:45;7.20;99.90
52471;DHT22;38382;53.160;7.026;2022-11-24T04:37:11;6.60;99.90
52471;DHT22;38382;53.160;7.026;2022-11-24T04:39:36;6.50;99.90
52471;DHT22;38382;53.160;7.026;2022-11-24T04:42:02;6.50;99.90
52471;DHT22;38382;53.160;7.026;2022-11-24T04:44:28;6.50;99.90
52471;DHT22;38382;53.160;7.026;2022-11-24T04:46:54;6.60;99.90
52471;DHT22;38382;53.160;7.026;2022-11-24T04:49:20;6.50;99.90
52471;DHT22;38382;53.160;7.026;2022-11-24T04:51:46;6.40;99.90
52471;DHT22;38382;53.160;7.026;2022-11-24T04:54:12;6.30;99.90
52471;DHT22;38382;53.160;7.026;2022-11-24T04:56:39;6.30;99.90
52471;DHT22;38382;53.160;7.026;2022-11-24T04:59:06;6.30;99.90
52471;DHT22;38382;53.160;7.026;2022-11-24T05:01:32;6.40;99.90
52471;DHT22;38382;53.160;7.026;2022-11-24T05:03:58;6.20;99.90
52471;DHT22;38382;53.160;7.026;2022-11-24T05:06:24;6.20;99.90
52471;DHT22;38382;53.160;7.026;2022-11-24T05:08:51;6.40;99.90
52471;DHT22;38382;53.160;7.026;2022-11-24T05:11:17;6.40;99.90
52471;DHT22;38382;53.160;7.026;2022-11-24T05:13:44;6.10;99.90
52471;DHT22;38382;53.160;7.026;2022-11-24T05:16:10;6.10;99.90
52471;DHT22;38382;53.160;7.026;2022-11-24T05:18:36;6.10;99.90
52471;DHT22;38382;53.160;7.026;2022-11-24T05:21:03;6.50;99.90
52471;DHT22;38382;53.160;7.026;2022-11-24T05:23:29;6.00;99.90
52471;DHT22;38382;53.160;7.026;2022-11-24T05:25:59;6.20;99.90
52471;DHT22;38382;53.160;7.026;2022-11-24T05:28:26;6.00;99.90
52471;DHT22;38382;53.160;7.026;2022-11-24T05:30:52;6.00;99.90
52471;DHT22;38382;53.160;7.026;2022-11-24T05:33:18;6.40;99.90
52471;DHT22;38382;53.160;7.026;2022-11-24T05:35:48;6.00;99.90
52471;DHT22;38382;53.160;7.026;2022-11-24T05:38:17;6.00;99.90
52471;DHT22;38382;53.160;7.026;2022-11-24T05:40:43;6.40;99.90
52471;DHT22;38382;53.160;7.026;2022-11-24T05:43:13;6.10;99.90
52471;DHT22;38382;53.160;7.026;2022-11-24T05:45:39;5.90;99.90
52471;DHT22;38382;53.160;7.026;2022-11-24T05:48:07;5.90;99.90
52471;DHT22;38382;53.160;7.026;2022-11-24T05:50:33;5.80;99.90
52471;DHT22;38382;53.160;7.026;2022-11-24T05:53:18;5.80;99.90
52471;DHT22;38382;53.160;7.026;2022-11-24T05:55:44;5.80;99.90
52471;DHT22;38382;53.160;7.026;2022-11-24T05:58:09;5.70;99.90
52471;DHT22;38382;53.160;7.026;2022-11-24T06:00:36;5.70;99.90
52471;DHT22;38382;53.160;7.026;2022-11-24T06:03:02;5.70;99.90
52471;DHT22;38382;53.160;7.026;2022-11-24T06:05:28;5.70;99.90
52471;DHT22;38382;53.160;7.026;2022-11-24T06:07:54;5.70;99.90
52471;DHT22;38382;53.160;7.026;2022-11-24T06:10:21;5.70;99.90
52471;DHT22;38382;53.160;7.026;2022-11-24T06:12:48;5.70;99.90
52471;DHT22;38382;53.160;7.026;2022-11-24T06:15:15;5.70;99.90
52471;DHT22;38382;53.160;7.026;2022-11-24T06:17:42;5.80;99.90
52471;DHT22;38382;53.160;7.026;2022-11-24T06:20:08;5.70;99.90
52471;DHT22;38382;53.160;7.026;2022-11-24T06:22:35;5.70;99.90
52471;DHT22;38382;53.160;7.026;2022-11-24T06:25:01;6.80;99.90
52471;DHT22;38382;53.160;7.026;2022-11-24T06:27:27;6.10;99.90
52471;DHT22;38382;53.160;7.026;2022-11-24T06:29:52;5.70;99.90
52471;DHT22;38382;53.160;7.026;2022-11-24T06:32:18;5.70;99.90
52471;DHT22;38382;53.160;7.026;2022-11-24T06:34:44;5.70;99.90
52471;DHT22;38382;53.160;7.026;2022-11-24T06:37:10;6.30;99.90
52471;DHT22;38382;53.160;7.026;2022-11-24T06:39:36;5.70;99.90
52471;DHT22;38382;53.160;7.026;2022-11-24T06:42:02;5.60;99.90
52471;DHT22;38382;53.160;7.026;2022-11-24T06:44:27;5.70;99.90
52471;DHT22;38382;53.160;7.026;2022-11-24T06:46:53;5.90;99.90
52471;DHT22;38382;53.160;7.026;2022-11-24T06:49:19;5.70;99.90
52471;DHT22;38382;53.160;7.026;2022-11-24T06:51:45;6.00;99.90
52471;DHT22;38382;53.160;7.026;2022-11-24T06:54:15;5.80;99.90
52471;DHT22;38382;53.160;7.026;2022-11-24T06:56:42;5.90;99.90
52471;DHT22;38382;53.160;7.026;2022-11-24T06:59:17;5.80;99.90
52471;DHT22;38382;53.160;7.026;2022-11-24T07:01:43;5.80;99.90
52471;DHT22;38382;53.160;7.026;2022-11-24T07:04:09;5.90;99.90
52471;DHT22;38382;53.160;7.026;2022-11-24T07:06:35;6.60;99.90
52471;DHT22;38382;53.160;7.026;2022-11-24T07:09:01;6.50;99.90
52471;DHT22;38382;53.160;7.026;2022-11-24T07:11:27;5.80;99.90
52471;DHT22;38382;53.160;7.026;2022-11-24T07:13:53;6.50;99.90
52471;DHT22;38382;53.160;7.026;2022-11-24T07:16:20;5.80;99.90
52471;DHT22;38382;53.160;7.026;2022-11-24T07:18:48;5.90;99.90
52471;DHT22;38382;53.160;7.026;2022-11-24T07:21:14;5.90;99.90
52471;DHT22;38382;53.160;7.026;2022-11-24T07:23:40;5.90;99.90
52471;DHT22;38382;53.160;7.026;2022-11-24T07:26:07;7.00;99.90
52471;DHT22;38382;53.160;7.026;2022-11-24T07:28:34;5.90;99.90
52471;DHT22;38382;53.160;7.026;2022-11-24T07:31:09;5.90;99.90
52471;DHT22;38382;53.160;7.026;2022-11-24T07:33:35;5.90;99.90
52471;DHT22;38382;53.160;7.026;2022-11-24T07:36:02;6.00;99.90
52471;DHT22;38382;53.160;7.026;2022-11-24T07:38:29;6.00;99.90
52471;DHT22;38382;53.160;7.026;2022-11-24T07:41:08;5.90;99.90
52471;DHT22;38382;53.160;7.026;2022-11-24T07:43:35;6.00;99.90
52471;DHT22;38382;53.160;7.026;2022-11-24T07:46:01;6.90;99.90
52471;DHT22;38382;53.160;7.026;2022-11-24T07:48:27;6.40;99.90
52471;DHT22;38382;53.160;7.026;2022-11-24T07:50:53;5.90;99.90
52471;DHT22;38382;53.160;7.026;2022-11-24T07:53:19;6.00;99.90
52471;DHT22;38382;53.160;7.026;2022-11-24T07:55:56;5.90;99.90
52471;DHT22;38382;53.160;7.026;2022-11-24T07:58:22;6.00;99.90
52471;DHT22;38382;53.160;7.026;2022-11-24T08:00:48;6.00;99.90
52471;DHT22;38382;53.160;7.026;2022-11-24T08:03:14;6.00;99.90
52471;DHT22;38382;53.160;7.026;2022-11-24T08:05:40;6.00;99.90
52471;DHT22;38382;53.160;7.026;2022-11-24T08:08:05;6.00;99.90
52471;DHT22;38382;53.160;7.026;2022-11-24T08:10:31;6.00;99.90
52471;DHT22;38382;53.160;7.026;2022-11-24T08:13:00;6.00;99.90
52471;DHT22;38382;53.160;7.026;2022-11-24T08:15:26;6.10;99.90
52471;DHT22;38382;53.160;7.026;2022-11-24T08:17:52;6.10;99.90
52471;DHT22;38382;53.160;7.026;2022-11-24T08:20:18;6.20;99.90
52471;DHT22;38382;53.160;7.026;2022-11-24T08:22:44;6.10;99.90
52471;DHT22;38382;53.160;7.026;2022-11-24T08:25:09;6.10;99.90
52471;DHT22;38382;53.160;7.026;2022-11-24T08:27:38;7.10;99.90
52471;DHT22;38382;53.160;7.026;2022-11-24T08:30:05;6.20;99.90
52471;DHT22;38382;53.160;7.026;2022-11-24T08:32:31;6.20;99.90
52471;DHT22;38382;53.160;7.026;2022-11-24T08:34:56;6.40;99.90
52471;DHT22;38382;53.160;7.026;2022-11-24T08:37:22;6.20;99.90
52471;DHT22;38382;53.160;7.026;2022-11-24T08:39:50;6.30;99.90
52471;DHT22;38382;53.160;7.026;2022-11-24T08:42:16;6.30;99.90
52471;DHT22;38382;53.160;7.026;2022-11-24T08:44:42;6.40;99.90
52471;DHT22;38382;53.160;7.026;2022-11-24T08:47:08;6.40;99.90
52471;DHT22;38382;53.160;7.026;2022-11-24T08:49:33;6.40;99.90
52471;DHT22;38382;53.160;7.026;2022-11-24T08:51:59;6.40;99.90
52471;DHT22;38382;53.160;7.026;2022-11-24T08:54:25;6.50;99.90
52471;DHT22;38382;53.160;7.026;2022-11-24T08:56:51;6.50;99.90
52471;DHT22;38382;53.160;7.026;2022-11-24T08:59:16;6.50;99.90
52471;DHT22;38382;53.160;7.026;2022-11-24T09:01:42;6.50;99.90
52471;DHT22;38382;53.160;7.026;2022-11-24T09:04:09;6.60;99.90
52471;DHT22;38382;53.160;7.026;2022-11-24T09:06:34;6.60;99.90
52471;DHT22;38382;53.160;7.026;2022-11-24T09:09:00;6.70;99.90
52471;DHT22;38382;53.160;7.026;2022-11-24T09:11:26;7.00;99.90
52471;DHT22;38382;53.160;7.026;2022-11-24T09:13:54;6.80;99.90
52471;DHT22;38382;53.160;7.026;2022-11-24T09:16:22;6.80;99.90
52471;DHT22;38382;53.160;7.026;2022-11-24T09:19:01;6.90;99.90
52471;DHT22;38382;53.160;7.026;2022-11-24T09:21:28;6.90;99.90
52471;DHT22;38382;53.160;7.026;2022-11-24T09:23:55;7.00;99.90
52471;DHT22;38382;53.160;7.026;2022-11-24T09:26:26;7.10;99.90
52471;DHT22;38382;53.160;7.026;2022-11-24T09:28:54;7.20;99.90
52471;DHT22;38382;53.160;7.026;2022-11-24T09:31:22;7.20;99.90
52471;DHT22;38382;53.160;7.026;2022-11-24T09:33:48;7.30;99.90
52471;DHT22;38382;53.160;7.026;2022-11-24T09:36:14;7.40;99.90
52471;DHT22;38382;53.160;7.026;2022-11-24T09:38:40;7.60;99.90
52471;DHT22;38382;53.160;7.026;2022-11-24T09:49:45;8.10;99.90
52471;DHT22;38382;53.160;7.026;2022-11-24T09:52:17;8.20;99.90
52471;DHT22;38382;53.160;7.026;2022-11-24T09:54:50;8.40;99.90
52471;DHT22;38382;53.160;7.026;2022-11-24T09:57:19;8.40;99.90
52471;DHT22;38382;53.160;7.026;2022-11-24T09:59:46;8.40;99.90
52471;DHT22;38382;53.160;7.026;2022-11-24T10:02:12;8.50;99.90
52471;DHT22;38382;53.160;7.026;2022-11-24T10:04:41;8.60;99.90
52471;DHT22;38382;53.160;7.026;2022-11-24T10:07:18;8.70;99.90
52471;DHT22;38382;53.160;7.026;2022-11-24T10:17:59;9.10;99.90
52471;DHT22;38382;53.160;7.026;2022-11-24T10:20:57;9.20;99.90
52471;DHT22;38382;53.160;7.026;2022-11-24T10:26:36;9.30;99.90
52471;DHT22;38382;53.160;7.026;2022-11-24T10:31:40;9.40;99.90
52471;DHT22;38382;53.160;7.026;2022-11-24T10:34:18;9.50;99.90
52471;DHT22;38382;53.160;7.026;2022-11-24T10:37:00;9.60;99.90
52471;DHT22;38382;53.160;7.026;2022-11-24T10:42:18;9.80;99.90
52471;DHT22;38382;53.160;7.026;2022-11-24T10:44:44;9.90;99.90
52471;DHT22;38382;53.160;7.026;2022-11-24T10:47:18;9.90;99.90
52471;DHT22;38382;53.160;7.026;2022-11-24T10:49:59;9.90;99.90
52471;DHT22;38382;53.160;7.026;2022-11-24T10:52:29;10.10;99.90
52471;DHT22;38382;53.160;7.026;2022-11-24T10:55:01;10.10;99.90
52471;DHT22;38382;53.160;7.026;2022-11-24T10:57:33;10.20;99.90
52471;DHT22;38382;53.160;7.026;2022-11-24T11:00:00;10.30;99.90
52471;DHT22;38382;53.160;7.026;2022-11-24T11:02:37;10.40;99.90
52471;DHT22;38382;53.160;7.026;2022-11-24T11:07:48;10.50;99.90
52471;DHT22;38382;53.160;7.026;2022-11-24T11:10:22;10.60;99.90
52471;DHT22;38382;53.160;7.026;2022-11-24T11:12:48;10.60;99.90
52471;DHT22;38382;53.160;7.026;2022-11-24T11:15:29;10.70;99.90
52471;DHT22;38382;53.160;7.026;2022-11-24T11:18:00;10.80;99.90
52471;DHT22;38382;53.160;7.026;2022-11-24T11:20:31;10.90;99.90
52471;DHT22;38382;53.160;7.026;2022-11-24T11:23:00;10.90;99.90
52471;DHT22;38382;53.160;7.026;2022-11-24T11:25:35;10.90;99.90
52471;DHT22;38382;53.160;7.026;2022-11-24T11:28:17;10.90;99.90
52471;DHT22;38382;53.160;7.026;2022-11-24T11:31:04;10.80;99.90
52471;DHT22;38382;53.160;7.026;2022-11-24T11:33:32;10.90;99.90
52471;DHT22;38382;53.160;7.026;2022-11-24T11:35:59;11.00;99.90
52471;DHT22;38382;53.160;7.026;2022-11-24T11:38:32;11.20;99.90
52471;DHT22;38382;53.160;7.026;2022-11-24T11:41:00;11.40;99.90
52471;DHT22;38382;53.160;7.026;2022-11-24T11:43:46;11.50;99.90
52471;DHT22;38382;53.160;7.026;2022-11-24T11:46:14;11.70;99.90
52471;DHT22;38382;53.160;7.026;2022-11-24T11:48:43;11.80;99.90
52471;DHT22;38382;53.160;7.026;2022-11-24T11:51:35;11.90;99.90
52471;DHT22;38382;53.160;7.026;2022-11-24T11:57:19;11.80;99.90
52471;DHT22;38382;53.160;7.026;2022-11-24T12:02:28;11.90;99.90
52471;DHT22;38382;53.160;7.026;2022-11-24T12:08:56;12.10;99.90
52471;DHT22;38382;53.160;7.026;2022-11-24T12:17:29;12.50;99.90
52471;DHT22;38382;53.160;7.026;2022-11-24T12:22:58;13.30;99.90
52471;DHT22;38382;53.160;7.026;2022-11-24T12:25:42;14.10;99.90
52471;DHT22;38382;53.160;7.026;2022-11-24T12:34:07;16.50;99.90
52471;DHT22;38382;53.160;7.026;2022-11-24T12:44:34;17.70;99.90
52471;DHT22;38382;53.160;7.026;2022-11-24T12:47:10;17.90;99.90
52471;DHT22;38382;53.160;7.026;2022-11-24T12:52:29;17.60;99.90
52471;DHT22;38382;53.160;7.026;2022-11-24T12:54:55;17.10;99.90
52471;DHT22;38382;53.160;7.026;2022-11-24T12:57:32;16.30;99.90
52471;DHT22;38382;53.160;7.026;2022-11-24T13:00:05;15.40;99.90
52471;DHT22;38382;53.160;7.026;2022-11-24T13:05:27;14.40;99.90
52471;DHT22;38382;53.160;7.026;2022-11-24T13:07:55;14.00;99.90
52471;DHT22;38382;53.160;7.026;2022-11-24T13:10:36;13.80;99.90
52471;DHT22;38382;53.160;7.026;2022-11-24T13:13:07;13.70;99.90
52471;DHT22;38382;53.160;7.026;2022-11-24T13:23:58;13.20;99.90
52471;DHT22;38382;53.160;7.026;2022-11-24T13:26:44;13.40;99.90
52471;DHT22;38382;53.160;7.026;2022-11-24T13:29:36;13.80;99.90
52471;DHT22;38382;53.160;7.026;2022-11-24T13:58:52;11.30;99.90
52471;DHT22;38382;53.160;7.026;2022-11-24T14:08:55;10.90;99.90
52471;DHT22;38382;53.160;7.026;2022-11-24T14:11:22;10.80;99.90
52471;DHT22;38382;53.160;7.026;2022-11-24T14:13:50;10.80;99.90
52471;DHT22;38382;53.160;7.026;2022-11-24T14:16:18;10.70;99.90
52471;DHT22;38382;53.160;7.026;2022-11-24T14:18:46;10.60;99.90
52471;DHT22;38382;53.160;7.026;2022-11-24T14:21:34;10.60;99.90
52471;DHT22;38382;53.160;7.026;2022-11-24T14:24:22;10.60;99.90
52471;DHT22;38382;53.160;7.026;2022-11-24T14:26:49;10.40;99.90
52471;DHT22;38382;53.160;7.026;2022-11-24T14:32:01;10.30;99.90
52471;DHT22;38382;53.160;7.026;2022-11-24T14:34:34;10.20;99.90
52471;DHT22;38382;53.160;7.026;2022-11-24T14:37:00;10.20;99.90
52471;DHT22;38382;53.160;7.026;2022-11-24T14:39:26;10.20;99.90
52471;DHT22;38382;53.160;7.026;2022-11-24T14:42:15;10.10;99.90
52471;DHT22;38382;53.160;7.026;2022-11-24T14:44:59;10.10;99.90
52471;DHT22;38382;53.160;7.026;2022-11-24T14:47:35;10.00;99.90
52471;DHT22;38382;53.160;7.026;2022-11-24T14:50:13;10.00;99.90
52471;DHT22;38382;53.160;7.026;2022-11-24T14:52:45;9.90;99.90
52471;DHT22;38382;53.160;7.026;2022-11-24T14:55:29;9.90;99.90
52471;DHT22;38382;53.160;7.026;2022-11-24T14:57:56;9.80;99.90
52471;DHT22;38382;53.160;7.026;2022-11-24T15:00:31;9.70;99.90
52471;DHT22;38382;53.160;7.026;2022-11-24T15:05:55;9.60;99.90
52471;DHT22;38382;53.160;7.026;2022-11-24T15:08:29;9.50;99.90
52471;DHT22;38382;53.160;7.026;2022-11-24T15:11:02;9.40;99.90
52471;DHT22;38382;53.160;7.026;2022-11-24T15:13:35;9.40;99.90
52471;DHT22;38382;53.160;7.026;2022-11-24T15:16:05;9.30;99.90
52471;DHT22;38382;53.160;7.026;2022-11-24T15:18:42;9.30;99.90
52471;DHT22;38382;53.160;7.026;2022-11-24T15:21:09;9.20;99.90
52471;DHT22;38382;53.160;7.026;2022-11-24T15:23:36;9.20;99.90
52471;DHT22;38382;53.160;7.026;2022-11-24T15:28:31;9.10;99.90
52471;DHT22;38382;53.160;7.026;2022-11-24T15:31:01;9.00;99.90
52471;DHT22;38382;53.160;7.026;2022-11-24T15:33:28;8.90;99.90
52471;DHT22;38382;53.160;7.026;2022-11-24T15:35:54;8.90;99.90
52471;DHT22;38382;53.160;7.026;2022-11-24T15:38:20;8.80;99.90
52471;DHT22;38382;53.160;7.026;2022-11-24T15:40:48;8.70;99.90
52471;DHT22;38382;53.160;7.026;2022-11-24T15:45:40;8.60;99.90
52471;DHT22;38382;53.160;7.026;2022-11-24T15:48:06;8.50;99.90
52471;DHT22;38382;53.160;7.026;2022-11-24T15:50:31;8.50;99.90
52471;DHT22;38382;53.160;7.026;2022-11-24T15:52:57;8.50;99.90
52471;DHT22;38382;53.160;7.026;2022-11-24T15:55:23;8.40;99.90
52471;DHT22;38382;53.160;7.026;2022-11-24T15:57:49;8.40;99.90
52471;DHT22;38382;53.160;7.026;2022-11-24T16:00:20;8.30;99.90
52471;DHT22;38382;53.160;7.026;2022-11-24T16:02:46;8.30;99.90
52471;DHT22;38382;53.160;7.026;2022-11-24T16:05:13;8.30;99.90
52471;DHT22;38382;53.160;7.026;2022-11-24T16:07:39;8.30;99.90
52471;DHT22;38382;53.160;7.026;2022-11-24T16:10:10;8.30;99.90
52471;DHT22;38382;53.160;7.026;2022-11-24T16:12:37;8.20;99.90
52471;DHT22;38382;53.160;7.026;2022-11-24T16:15:03;8.20;99.90
52471;DHT22;38382;53.160;7.026;2022-11-24T16:17:28;8.10;99.90
52471;DHT22;38382;53.160;7.026;2022-11-24T16:19:54;8.10;99.90
52471;DHT22;38382;53.160;7.026;2022-11-24T16:22:20;8.00;99.90
52471;DHT22;38382;53.160;7.026;2022-11-24T16:24:46;8.00;99.90
52471;DHT22;38382;53.160;7.026;2022-11-24T16:27:11;7.90;99.90
52471;DHT22;38382;53.160;7.026;2022-11-24T16:29:37;7.80;99.90
52471;DHT22;38382;53.160;7.026;2022-11-24T16:32:03;7.80;99.90
52471;DHT22;38382;53.160;7.026;2022-11-24T16:34:29;7.70;99.90
52471;DHT22;38382;53.160;7.026;2022-11-24T16:36:54;7.60;99.90
52471;DHT22;38382;53.160;7.026;2022-11-24T16:39:20;7.60;99.90
52471;DHT22;38382;53.160;7.026;2022-11-24T16:41:46;7.50;99.90
52471;DHT22;38382;53.160;7.026;2022-11-24T16:44:12;7.50;99.90
52471;DHT22;38382;53.160;7.026;2022-11-24T16:46:37;7.40;99.90
52471;DHT22;38382;53.160;7.026;2022-11-24T16:49:03;7.40;99.90
52471;DHT22;38382;53.160;7.026;2022-11-24T16:51:29;7.30;99.90
52471;DHT22;38382;53.160;7.026;2022-11-24T16:53:56;7.30;99.90
52471;DHT22;38382;53.160;7.026;2022-11-24T16:56:22;7.30;99.90
52471;DHT22;38382;53.160;7.026;2022-11-24T16:58:48;7.20;99.90
52471;DHT22;38382;53.160;7.026;2022-11-24T17:01:15;7.20;99.90
52471;DHT22;38382;53.160;7.026;2022-11-24T17:03:40;7.10;99.90
52471;DHT22;38382;53.160;7.026;2022-11-24T17:06:08;7.10;99.90
52471;DHT22;38382;53.160;7.026;2022-11-24T17:08:37;7.10;99.90
52471;DHT22;38382;53.160;7.026;2022-11-24T17:11:12;7.10;99.90
52471;DHT22;38382;53.160;7.026;2022-11-24T17:13:39;7.00;99.90
52471;DHT22;38382;53.160;7.026;2022-11-24T17:16:09;7.00;99.90
52471;DHT22;38382;53.160;7.026;2022-11-24T17:18:36;6.90;99.90
52471;DHT22;38382;53.160;7.026;2022-11-24T17:21:04;6.90;99.90
52471;DHT22;38382;53.160;7.026;2022-11-24T17:23:30;6.90;99.90
52471;DHT22;38382;53.160;7.026;2022-11-24T17:26:04;7.50;99.90
52471;DHT22;38382;53.160;7.026;2022-11-24T17:28:30;6.90;99.90
52471;DHT22;38382;53.160;7.026;2022-11-24T17:30:56;6.80;99.90
52471;DHT22;38382;53.160;7.026;2022-11-24T17:33:22;6.80;99.90
52471;DHT22;38382;53.160;7.026;2022-11-24T17:35:47;6.80;99.90
52471;DHT22;38382;53.160;7.026;2022-11-24T17:38:13;6.70;99.90
52471;DHT22;38382;53.160;7.026;2022-11-24T17:40:39;6.80;99.90
52471;DHT22;38382;53.160;7.026;2022-11-24T17:43:05;7.00;99.90
52471;DHT22;38382;53.160;7.026;2022-11-24T17:45:30;6.70;99.90
52471;DHT22;38382;53.160;7.026;2022-11-24T17:47:59;6.80;99.90
52471;DHT22;38382;53.160;7.026;2022-11-24T17:50:25;6.70;99.90
52471;DHT22;38382;53.160;7.026;2022-11-24T17:52:51;6.70;99.90
52471;DHT22;38382;53.160;7.026;2022-11-24T17:55:17;6.60;99.90
52471;DHT22;38382;53.160;7.026;2022-11-24T17:57:43;6.60;99.90
52471;DHT22;38382;53.160;7.026;2022-11-24T18:00:09;6.70;99.90
52471;DHT22;38382;53.160;7.026;2022-11-24T18:02:36;6.60;99.90